sensor_id;sensor_type;location;lat;lon;timestamp;pressure;altitude;pressure_sealevel;temperature
23208;BMP180;11773;52.570;13.052;2022-08-01T00:00:21;101062.00;;;28.50
23208;BMP180;11773;52.570;13.052;2022-08-01T00:02:50;101046.00;;;28.50
23208;BMP180;11773;52.570;13.052;2022-08-01T00:05:20;101052.00;;;28.40
23208;BMP180;11773;52.570;13.052;2022-08-01T00:07:50;101036.00;;;28.40
23208;BMP180;11773;52.570;13.052;2022-08-01T00:10:20;101048.00;;;28.40
23208;BMP180;11773;52.570;13.052;2022-08-01T00:12:50;101037.00;;;28.30
23208;BMP180;11773;52.570;13.052;2022-08-01T00:15:19;101027.00;;;28.30
23208;BMP180;11773;52.570;13.052;2022-08-01T00:17:49;101034.00;;;28.30
23208;BMP180;11773;52.570;13.052;2022-08-01T00:20:18;101035.00;;;28.20
23208;BMP180;11773;52.570;13.052;2022-08-01T00:22:48;101030.00;;;28.20
23208;BMP180;11773;52.570;13.052;2022-08-01T00:25:17;101041.00;;;28.20
23208;BMP180;11773;52.570;13.052;2022-08-01T00:27:47;101044.00;;;28.20
23208;BMP180;11773;52.570;13.052;2022-08-01T00:30:17;101028.00;;;28.20
23208;BMP180;11773;52.570;13.052;2022-08-01T00:32:46;101036.00;;;28.10
23208;BMP180;11773;52.570;13.052;2022-08-01T00:35:16;101022.00;;;28.10
23208;BMP180;11773;52.570;13.052;2022-08-01T00:37:45;101015.00;;;28.10
23208;BMP180;11773;52.570;13.052;2022-08-01T00:40:15;101027.00;;;28.10
23208;BMP180;11773;52.570;13.052;2022-08-01T00:42:44;101024.00;;;28.00
23208;BMP180;11773;52.570;13.052;2022-08-01T00:45:14;101020.00;;;28.00
23208;BMP180;11773;52.570;13.052;2022-08-01T00:47:43;101017.00;;;28.00
23208;BMP180;11773;52.570;13.052;2022-08-01T00:50:13;101033.00;;;28.00
23208;BMP180;11773;52.570;13.052;2022-08-01T00:52:43;101021.00;;;28.00
23208;BMP180;11773;52.570;13.052;2022-08-01T00:55:15;101033.00;;;28.00
23208;BMP180;11773;52.570;13.052;2022-08-01T00:57:45;101014.00;;;27.90
23208;BMP180;11773;52.570;13.052;2022-08-01T01:00:17;101028.00;;;27.90
23208;BMP180;11773;52.570;13.052;2022-08-01T01:02:48;101017.00;;;27.90
23208;BMP180;11773;52.570;13.052;2022-08-01T01:05:18;101008.00;;;27.90
23208;BMP180;11773;52.570;13.052;2022-08-01T01:08:13;101006.00;;;27.90
23208;BMP180;11773;52.570;13.052;2022-08-01T01:11:01;101004.00;;;27.80
23208;BMP180;11773;52.570;13.052;2022-08-01T01:13:49;101009.00;;;27.80
23208;BMP180;11773;52.570;13.052;2022-08-01T01:16:20;101007.00;;;27.70
23208;BMP180;11773;52.570;13.052;2022-08-01T01:19:01;101006.00;;;27.70
23208;BMP180;11773;52.570;13.052;2022-08-01T01:21:51;100997.00;;;27.70
23208;BMP180;11773;52.570;13.052;2022-08-01T01:24:39;101000.00;;;27.60
23208;BMP180;11773;52.570;13.052;2022-08-01T01:27:36;101001.00;;;27.60
23208;BMP180;11773;52.570;13.052;2022-08-01T01:30:02;101003.00;;;27.50
23208;BMP180;11773;52.570;13.052;2022-08-01T01:32:44;101011.00;;;27.50
23208;BMP180;11773;52.570;13.052;2022-08-01T01:35:24;101004.00;;;27.50
23208;BMP180;11773;52.570;13.052;2022-08-01T01:38:13;101007.00;;;27.50
23208;BMP180;11773;52.570;13.052;2022-08-01T01:40:39;101000.00;;;27.40
23208;BMP180;11773;52.570;13.052;2022-08-01T01:43:11;100999.00;;;27.40
23208;BMP180;11773;52.570;13.052;2022-08-01T01:45:45;100989.00;;;27.40
23208;BMP180;11773;52.570;13.052;2022-08-01T01:48:20;101008.00;;;27.40
23208;BMP180;11773;52.570;13.052;2022-08-01T01:50:53;100994.00;;;27.40
23208;BMP180;11773;52.570;13.052;2022-08-01T01:53:28;101001.00;;;27.40
23208;BMP180;11773;52.570;13.052;2022-08-01T01:55:59;100995.00;;;27.30
23208;BMP180;11773;52.570;13.052;2022-08-01T01:58:31;100988.00;;;27.30
23208;BMP180;11773;52.570;13.052;2022-08-01T02:01:03;100993.00;;;27.30
23208;BMP180;11773;52.570;13.052;2022-08-01T02:03:37;100999.00;;;27.30
23208;BMP180;11773;52.570;13.052;2022-08-01T02:06:11;100991.00;;;27.30
23208;BMP180;11773;52.570;13.052;2022-08-01T02:08:42;100982.00;;;27.20
23208;BMP180;11773;52.570;13.052;2022-08-01T02:11:13;100997.00;;;27.30
23208;BMP180;11773;52.570;13.052;2022-08-01T02:14:03;101003.00;;;27.20
23208;BMP180;11773;52.570;13.052;2022-08-01T02:16:36;100977.00;;;27.20
23208;BMP180;11773;52.570;13.052;2022-08-01T02:19:06;100989.00;;;27.20
23208;BMP180;11773;52.570;13.052;2022-08-01T02:21:40;100980.00;;;27.20
23208;BMP180;11773;52.570;13.052;2022-08-01T02:27:22;100987.00;;;27.00
23208;BMP180;11773;52.570;13.052;2022-08-01T02:30:01;100987.00;;;27.00
23208;BMP180;11773;52.570;13.052;2022-08-01T02:32:43;100996.00;;;27.00
23208;BMP180;11773;52.570;13.052;2022-08-01T02:35:23;100983.00;;;27.00
23208;BMP180;11773;52.570;13.052;2022-08-01T02:37:55;100984.00;;;27.00
23208;BMP180;11773;52.570;13.052;2022-08-01T02:40:29;100992.00;;;27.00
23208;BMP180;11773;52.570;13.052;2022-08-01T02:43:03;100977.00;;;27.00
23208;BMP180;11773;52.570;13.052;2022-08-01T02:45:37;100993.00;;;27.00
23208;BMP180;11773;52.570;13.052;2022-08-01T02:48:15;100993.00;;;27.00
23208;BMP180;11773;52.570;13.052;2022-08-01T02:50:49;100991.00;;;27.00
23208;BMP180;11773;52.570;13.052;2022-08-01T02:53:21;100987.00;;;27.00
23208;BMP180;11773;52.570;13.052;2022-08-01T02:55:56;100988.00;;;27.00
23208;BMP180;11773;52.570;13.052;2022-08-01T02:58:27;100992.00;;;27.00
23208;BMP180;11773;52.570;13.052;2022-08-01T03:01:00;100989.00;;;27.00
23208;BMP180;11773;52.570;13.052;2022-08-01T03:03:31;100996.00;;;26.90
23208;BMP180;11773;52.570;13.052;2022-08-01T03:06:02;100990.00;;;26.90
23208;BMP180;11773;52.570;13.052;2022-08-01T03:08:33;100993.00;;;26.90
23208;BMP180;11773;52.570;13.052;2022-08-01T03:11:05;100984.00;;;26.90
23208;BMP180;11773;52.570;13.052;2022-08-01T03:13:37;100995.00;;;26.90
23208;BMP180;11773;52.570;13.052;2022-08-01T03:16:08;100992.00;;;26.90
23208;BMP180;11773;52.570;13.052;2022-08-01T03:18:42;100992.00;;;27.00
23208;BMP180;11773;52.570;13.052;2022-08-01T03:21:14;100986.00;;;26.90
23208;BMP180;11773;52.570;13.052;2022-08-01T03:23:45;100992.00;;;26.90
23208;BMP180;11773;52.570;13.052;2022-08-01T03:26:19;101006.00;;;26.90
23208;BMP180;11773;52.570;13.052;2022-08-01T03:28:50;101006.00;;;26.90
23208;BMP180;11773;52.570;13.052;2022-08-01T03:31:21;101002.00;;;26.90
23208;BMP180;11773;52.570;13.052;2022-08-01T03:33:51;101005.00;;;26.90
23208;BMP180;11773;52.570;13.052;2022-08-01T03:36:26;100998.00;;;27.00
23208;BMP180;11773;52.570;13.052;2022-08-01T03:39:01;100997.00;;;26.90
23208;BMP180;11773;52.570;13.052;2022-08-01T03:41:37;100995.00;;;26.90
23208;BMP180;11773;52.570;13.052;2022-08-01T03:44:17;101009.00;;;26.90
23208;BMP180;11773;52.570;13.052;2022-08-01T03:47:02;101010.00;;;26.90
23208;BMP180;11773;52.570;13.052;2022-08-01T03:49:35;100996.00;;;26.90
23208;BMP180;11773;52.570;13.052;2022-08-01T03:52:09;101003.00;;;26.90
23208;BMP180;11773;52.570;13.052;2022-08-01T03:54:43;101013.00;;;26.90
23208;BMP180;11773;52.570;13.052;2022-08-01T03:57:13;101012.00;;;26.90
23208;BMP180;11773;52.570;13.052;2022-08-01T03:59:46;101000.00;;;26.90
23208;BMP180;11773;52.570;13.052;2022-08-01T04:02:17;101002.00;;;26.90
23208;BMP180;11773;52.570;13.052;2022-08-01T04:04:49;100996.00;;;26.90
23208;BMP180;11773;52.570;13.052;2022-08-01T04:07:33;101007.00;;;26.90
23208;BMP180;11773;52.570;13.052;2022-08-01T04:10:07;101006.00;;;26.80
23208;BMP180;11773;52.570;13.052;2022-08-01T04:12:37;101012.00;;;26.80
23208;BMP180;11773;52.570;13.052;2022-08-01T04:15:07;101011.00;;;26.80
23208;BMP180;11773;52.570;13.052;2022-08-01T04:17:36;101015.00;;;26.90
23208;BMP180;11773;52.570;13.052;2022-08-01T04:20:07;101020.00;;;26.90
23208;BMP180;11773;52.570;13.052;2022-08-01T04:22:37;101016.00;;;26.90
23208;BMP180;11773;52.570;13.052;2022-08-01T04:25:14;101024.00;;;26.90
23208;BMP180;11773;52.570;13.052;2022-08-01T04:27:47;101010.00;;;26.90
23208;BMP180;11773;52.570;13.052;2022-08-01T04:30:31;101010.00;;;26.80
23208;BMP180;11773;52.570;13.052;2022-08-01T04:32:59;101011.00;;;26.80
23208;BMP180;11773;52.570;13.052;2022-08-01T04:35:30;101030.00;;;26.80
23208;BMP180;11773;52.570;13.052;2022-08-01T04:38:04;101018.00;;;26.80
23208;BMP180;11773;52.570;13.052;2022-08-01T04:40:36;101030.00;;;26.80
23208;BMP180;11773;52.570;13.052;2022-08-01T04:43:05;101034.00;;;26.80
23208;BMP180;11773;52.570;13.052;2022-08-01T04:45:36;101017.00;;;26.80
23208;BMP180;11773;52.570;13.052;2022-08-01T04:48:07;101028.00;;;26.80
23208;BMP180;11773;52.570;13.052;2022-08-01T04:50:37;101041.00;;;26.80
23208;BMP180;11773;52.570;13.052;2022-08-01T04:53:17;101039.00;;;26.80
23208;BMP180;11773;52.570;13.052;2022-08-01T04:55:48;101042.00;;;26.80
23208;BMP180;11773;52.570;13.052;2022-08-01T04:58:17;101033.00;;;26.80
23208;BMP180;11773;52.570;13.052;2022-08-01T05:00:47;101034.00;;;26.80
23208;BMP180;11773;52.570;13.052;2022-08-01T05:03:17;101031.00;;;26.80
23208;BMP180;11773;52.570;13.052;2022-08-01T05:05:46;101029.00;;;26.80
23208;BMP180;11773;52.570;13.052;2022-08-01T05:08:16;101033.00;;;26.80
23208;BMP180;11773;52.570;13.052;2022-08-01T05:10:45;101034.00;;;26.80
23208;BMP180;11773;52.570;13.052;2022-08-01T05:13:15;101028.00;;;26.80
23208;BMP180;11773;52.570;13.052;2022-08-01T05:15:44;101029.00;;;26.80
23208;BMP180;11773;52.570;13.052;2022-08-01T05:18:14;101028.00;;;26.80
23208;BMP180;11773;52.570;13.052;2022-08-01T05:20:46;101041.00;;;26.80
23208;BMP180;11773;52.570;13.052;2022-08-01T05:23:15;101040.00;;;26.80
23208;BMP180;11773;52.570;13.052;2022-08-01T05:25:48;101035.00;;;26.80
23208;BMP180;11773;52.570;13.052;2022-08-01T05:28:19;101048.00;;;26.80
23208;BMP180;11773;52.570;13.052;2022-08-01T05:30:49;101045.00;;;26.80
23208;BMP180;11773;52.570;13.052;2022-08-01T05:33:18;101050.00;;;26.80
23208;BMP180;11773;52.570;13.052;2022-08-01T05:35:49;101036.00;;;26.90
23208;BMP180;11773;52.570;13.052;2022-08-01T05:38:19;101052.00;;;26.90
23208;BMP180;11773;52.570;13.052;2022-08-01T05:40:48;101052.00;;;26.90
23208;BMP180;11773;52.570;13.052;2022-08-01T05:43:18;101044.00;;;26.90
23208;BMP180;11773;52.570;13.052;2022-08-01T05:45:49;101049.00;;;26.90
23208;BMP180;11773;52.570;13.052;2022-08-01T05:48:19;101051.00;;;26.90
23208;BMP180;11773;52.570;13.052;2022-08-01T05:50:48;101050.00;;;26.90
23208;BMP180;11773;52.570;13.052;2022-08-01T05:53:20;101041.00;;;26.90
23208;BMP180;11773;52.570;13.052;2022-08-01T05:55:50;101050.00;;;26.90
23208;BMP180;11773;52.570;13.052;2022-08-01T05:58:19;101043.00;;;26.90
23208;BMP180;11773;52.570;13.052;2022-08-01T06:00:49;101039.00;;;26.90
23208;BMP180;11773;52.570;13.052;2022-08-01T06:03:19;101052.00;;;26.90
23208;BMP180;11773;52.570;13.052;2022-08-01T06:05:48;101056.00;;;26.90
23208;BMP180;11773;52.570;13.052;2022-08-01T06:08:18;101063.00;;;26.90
23208;BMP180;11773;52.570;13.052;2022-08-01T06:10:47;101052.00;;;26.90
23208;BMP180;11773;52.570;13.052;2022-08-01T06:13:17;101055.00;;;26.90
23208;BMP180;11773;52.570;13.052;2022-08-01T06:15:48;101064.00;;;26.90
23208;BMP180;11773;52.570;13.052;2022-08-01T06:18:18;101059.00;;;26.90
23208;BMP180;11773;52.570;13.052;2022-08-01T06:20:47;101057.00;;;26.90
23208;BMP180;11773;52.570;13.052;2022-08-01T06:23:17;101053.00;;;26.90
23208;BMP180;11773;52.570;13.052;2022-08-01T06:25:51;101061.00;;;26.90
23208;BMP180;11773;52.570;13.052;2022-08-01T06:28:22;101070.00;;;27.00
23208;BMP180;11773;52.570;13.052;2022-08-01T06:30:52;101054.00;;;27.00
23208;BMP180;11773;52.570;13.052;2022-08-01T06:33:21;101060.00;;;27.00
23208;BMP180;11773;52.570;13.052;2022-08-01T06:35:51;101063.00;;;27.00
23208;BMP180;11773;52.570;13.052;2022-08-01T06:38:21;101080.00;;;27.00
23208;BMP180;11773;52.570;13.052;2022-08-01T06:40:50;101059.00;;;27.10
23208;BMP180;11773;52.570;13.052;2022-08-01T06:43:20;101069.00;;;27.10
23208;BMP180;11773;52.570;13.052;2022-08-01T06:45:50;101075.00;;;27.10
23208;BMP180;11773;52.570;13.052;2022-08-01T06:48:19;101064.00;;;27.10
23208;BMP180;11773;52.570;13.052;2022-08-01T06:50:49;101082.00;;;27.10
23208;BMP180;11773;52.570;13.052;2022-08-01T06:53:20;101086.00;;;27.20
23208;BMP180;11773;52.570;13.052;2022-08-01T06:55:49;101072.00;;;27.20
23208;BMP180;11773;52.570;13.052;2022-08-01T06:58:19;101072.00;;;27.30
23208;BMP180;11773;52.570;13.052;2022-08-01T07:00:50;101067.00;;;27.30
23208;BMP180;11773;52.570;13.052;2022-08-01T07:03:21;101082.00;;;27.40
23208;BMP180;11773;52.570;13.052;2022-08-01T07:05:51;101085.00;;;27.50
23208;BMP180;11773;52.570;13.052;2022-08-01T07:08:21;101080.00;;;27.50
23208;BMP180;11773;52.570;13.052;2022-08-01T07:10:50;101078.00;;;27.50
23208;BMP180;11773;52.570;13.052;2022-08-01T07:13:20;101074.00;;;27.50
23208;BMP180;11773;52.570;13.052;2022-08-01T07:15:53;101069.00;;;27.50
23208;BMP180;11773;52.570;13.052;2022-08-01T07:18:23;101072.00;;;27.50
23208;BMP180;11773;52.570;13.052;2022-08-01T07:20:53;101069.00;;;27.50
23208;BMP180;11773;52.570;13.052;2022-08-01T07:23:24;101079.00;;;27.50
23208;BMP180;11773;52.570;13.052;2022-08-01T07:25:55;101070.00;;;27.50
23208;BMP180;11773;52.570;13.052;2022-08-01T07:28:27;101087.00;;;27.60
23208;BMP180;11773;52.570;13.052;2022-08-01T07:30:56;101072.00;;;27.50
23208;BMP180;11773;52.570;13.052;2022-08-01T07:33:26;101085.00;;;27.60
23208;BMP180;11773;52.570;13.052;2022-08-01T07:35:57;101087.00;;;27.60
23208;BMP180;11773;52.570;13.052;2022-08-01T07:38:27;101089.00;;;27.60
23208;BMP180;11773;52.570;13.052;2022-08-01T07:40:56;101103.00;;;27.60
23208;BMP180;11773;52.570;13.052;2022-08-01T07:43:26;101102.00;;;27.60
23208;BMP180;11773;52.570;13.052;2022-08-01T07:45:55;101094.00;;;27.60
23208;BMP180;11773;52.570;13.052;2022-08-01T07:48:25;101112.00;;;27.60
23208;BMP180;11773;52.570;13.052;2022-08-01T07:50:56;101106.00;;;27.60
23208;BMP180;11773;52.570;13.052;2022-08-01T07:53:26;101117.00;;;27.60
23208;BMP180;11773;52.570;13.052;2022-08-01T07:55:55;101118.00;;;27.60
23208;BMP180;11773;52.570;13.052;2022-08-01T07:58:25;101114.00;;;27.70
23208;BMP180;11773;52.570;13.052;2022-08-01T08:00:54;101113.00;;;27.70
23208;BMP180;11773;52.570;13.052;2022-08-01T08:03:24;101113.00;;;27.70
23208;BMP180;11773;52.570;13.052;2022-08-01T08:05:54;101127.00;;;27.70
23208;BMP180;11773;52.570;13.052;2022-08-01T08:08:27;101108.00;;;27.70
23208;BMP180;11773;52.570;13.052;2022-08-01T08:10:56;101104.00;;;27.80
23208;BMP180;11773;52.570;13.052;2022-08-01T08:13:26;101101.00;;;27.80
23208;BMP180;11773;52.570;13.052;2022-08-01T08:15:55;101107.00;;;27.80
23208;BMP180;11773;52.570;13.052;2022-08-01T08:18:27;101115.00;;;27.90
23208;BMP180;11773;52.570;13.052;2022-08-01T08:20:56;101115.00;;;28.00
23208;BMP180;11773;52.570;13.052;2022-08-01T08:23:27;101111.00;;;28.10
23208;BMP180;11773;52.570;13.052;2022-08-01T08:26:14;101120.00;;;28.10
23208;BMP180;11773;52.570;13.052;2022-08-01T08:28:44;101125.00;;;28.20
23208;BMP180;11773;52.570;13.052;2022-08-01T08:31:14;101119.00;;;28.20
23208;BMP180;11773;52.570;13.052;2022-08-01T08:33:45;101114.00;;;28.20
23208;BMP180;11773;52.570;13.052;2022-08-01T08:36:15;101110.00;;;28.30
23208;BMP180;11773;52.570;13.052;2022-08-01T08:38:45;101122.00;;;28.30
23208;BMP180;11773;52.570;13.052;2022-08-01T08:41:15;101106.00;;;28.30
23208;BMP180;11773;52.570;13.052;2022-08-01T08:43:46;101122.00;;;28.30
23208;BMP180;11773;52.570;13.052;2022-08-01T08:46:16;101127.00;;;28.30
23208;BMP180;11773;52.570;13.052;2022-08-01T08:48:48;101134.00;;;28.30
23208;BMP180;11773;52.570;13.052;2022-08-01T08:51:19;101129.00;;;28.30
23208;BMP180;11773;52.570;13.052;2022-08-01T08:53:55;101146.00;;;28.30
23208;BMP180;11773;52.570;13.052;2022-08-01T08:56:26;101139.00;;;28.30
23208;BMP180;11773;52.570;13.052;2022-08-01T08:58:58;101143.00;;;28.40
23208;BMP180;11773;52.570;13.052;2022-08-01T09:01:29;101143.00;;;28.40
23208;BMP180;11773;52.570;13.052;2022-08-01T09:04:04;101158.00;;;28.40
23208;BMP180;11773;52.570;13.052;2022-08-01T09:06:34;101152.00;;;28.40
23208;BMP180;11773;52.570;13.052;2022-08-01T09:09:05;101159.00;;;28.40
23208;BMP180;11773;52.570;13.052;2022-08-01T09:11:36;101162.00;;;28.40
23208;BMP180;11773;52.570;13.052;2022-08-01T09:16:45;101154.00;;;28.40
23208;BMP180;11773;52.570;13.052;2022-08-01T09:19:19;101167.00;;;28.40
23208;BMP180;11773;52.570;13.052;2022-08-01T09:22:05;101163.00;;;28.40
23208;BMP180;11773;52.570;13.052;2022-08-01T09:24:32;101158.00;;;28.40
23208;BMP180;11773;52.570;13.052;2022-08-01T09:27:18;101170.00;;;28.40
23208;BMP180;11773;52.570;13.052;2022-08-01T09:29:53;101165.00;;;28.40
23208;BMP180;11773;52.570;13.052;2022-08-01T09:32:24;101175.00;;;28.40
23208;BMP180;11773;52.570;13.052;2022-08-01T09:34:55;101173.00;;;28.50
23208;BMP180;11773;52.570;13.052;2022-08-01T09:37:32;101176.00;;;28.50
23208;BMP180;11773;52.570;13.052;2022-08-01T09:40:04;101176.00;;;28.50
23208;BMP180;11773;52.570;13.052;2022-08-01T09:42:34;101190.00;;;28.50
23208;BMP180;11773;52.570;13.052;2022-08-01T09:45:04;101174.00;;;28.50
23208;BMP180;11773;52.570;13.052;2022-08-01T09:47:41;101180.00;;;28.60
23208;BMP180;11773;52.570;13.052;2022-08-01T09:50:11;101180.00;;;28.50
23208;BMP180;11773;52.570;13.052;2022-08-01T09:52:41;101185.00;;;28.60
23208;BMP180;11773;52.570;13.052;2022-08-01T09:55:10;101180.00;;;28.60
23208;BMP180;11773;52.570;13.052;2022-08-01T09:57:40;101181.00;;;28.60
23208;BMP180;11773;52.570;13.052;2022-08-01T10:00:16;101198.00;;;28.60
23208;BMP180;11773;52.570;13.052;2022-08-01T10:02:47;101201.00;;;28.60
23208;BMP180;11773;52.570;13.052;2022-08-01T10:05:16;101193.00;;;28.60
23208;BMP180;11773;52.570;13.052;2022-08-01T10:07:59;101203.00;;;28.70
23208;BMP180;11773;52.570;13.052;2022-08-01T10:10:33;101201.00;;;28.70
23208;BMP180;11773;52.570;13.052;2022-08-01T10:13:05;101200.00;;;28.70
23208;BMP180;11773;52.570;13.052;2022-08-01T10:15:37;101195.00;;;28.70
23208;BMP180;11773;52.570;13.052;2022-08-01T10:18:09;101211.00;;;28.80
23208;BMP180;11773;52.570;13.052;2022-08-01T10:20:41;101205.00;;;28.80
23208;BMP180;11773;52.570;13.052;2022-08-01T10:23:12;101197.00;;;28.80
23208;BMP180;11773;52.570;13.052;2022-08-01T10:25:44;101209.00;;;28.80
23208;BMP180;11773;52.570;13.052;2022-08-01T10:28:17;101221.00;;;28.80
23208;BMP180;11773;52.570;13.052;2022-08-01T10:30:50;101209.00;;;28.80
23208;BMP180;11773;52.570;13.052;2022-08-01T10:33:23;101215.00;;;28.90
23208;BMP180;11773;52.570;13.052;2022-08-01T10:35:54;101206.00;;;28.90
23208;BMP180;11773;52.570;13.052;2022-08-01T10:38:24;101206.00;;;28.90
23208;BMP180;11773;52.570;13.052;2022-08-01T10:40:56;101211.00;;;28.90
23208;BMP180;11773;52.570;13.052;2022-08-01T10:43:26;101208.00;;;29.00
23208;BMP180;11773;52.570;13.052;2022-08-01T10:45:56;101209.00;;;29.00
23208;BMP180;11773;52.570;13.052;2022-08-01T10:51:19;101221.00;;;28.90
23208;BMP180;11773;52.570;13.052;2022-08-01T10:53:53;101232.00;;;28.90
23208;BMP180;11773;52.570;13.052;2022-08-01T10:56:38;101224.00;;;28.90
23208;BMP180;11773;52.570;13.052;2022-08-01T10:59:04;101235.00;;;28.90
23208;BMP180;11773;52.570;13.052;2022-08-01T11:01:35;101235.00;;;28.90
23208;BMP180;11773;52.570;13.052;2022-08-01T11:04:12;101234.00;;;28.90
23208;BMP180;11773;52.570;13.052;2022-08-01T11:07:07;101232.00;;;28.80
23208;BMP180;11773;52.570;13.052;2022-08-01T11:09:46;101232.00;;;28.80
23208;BMP180;11773;52.570;13.052;2022-08-01T11:12:19;101238.00;;;28.70
23208;BMP180;11773;52.570;13.052;2022-08-01T11:17:42;101240.00;;;28.70
23208;BMP180;11773;52.570;13.052;2022-08-01T11:20:32;101231.00;;;28.70
23208;BMP180;11773;52.570;13.052;2022-08-01T11:28:21;101261.00;;;28.70
23208;BMP180;11773;52.570;13.052;2022-08-01T11:33:47;101252.00;;;28.70
23208;BMP180;11773;52.570;13.052;2022-08-01T11:36:18;101249.00;;;28.70
23208;BMP180;11773;52.570;13.052;2022-08-01T11:41:42;101254.00;;;28.70
23208;BMP180;11773;52.570;13.052;2022-08-01T11:44:19;101249.00;;;28.70
23208;BMP180;11773;52.570;13.052;2022-08-01T11:47:06;101247.00;;;28.70
23208;BMP180;11773;52.570;13.052;2022-08-01T11:52:25;101237.00;;;28.80
23208;BMP180;11773;52.570;13.052;2022-08-01T11:55:03;101257.00;;;28.90
23208;BMP180;11773;52.570;13.052;2022-08-01T11:57:32;101245.00;;;29.00
23208;BMP180;11773;52.570;13.052;2022-08-01T12:00:16;101249.00;;;29.10
23208;BMP180;11773;52.570;13.052;2022-08-01T12:02:47;101239.00;;;29.10
23208;BMP180;11773;52.570;13.052;2022-08-01T12:05:19;101240.00;;;29.20
23208;BMP180;11773;52.570;13.052;2022-08-01T12:07:53;101228.00;;;29.30
23208;BMP180;11773;52.570;13.052;2022-08-01T12:10:28;101236.00;;;29.40
23208;BMP180;11773;52.570;13.052;2022-08-01T12:13:05;101227.00;;;29.50
23208;BMP180;11773;52.570;13.052;2022-08-01T12:15:37;101238.00;;;29.60
23208;BMP180;11773;52.570;13.052;2022-08-01T12:18:07;101227.00;;;29.70
23208;BMP180;11773;52.570;13.052;2022-08-01T12:20:40;101232.00;;;29.80
23208;BMP180;11773;52.570;13.052;2022-08-01T12:23:15;101246.00;;;29.80
23208;BMP180;11773;52.570;13.052;2022-08-01T12:25:50;101240.00;;;29.90
23208;BMP180;11773;52.570;13.052;2022-08-01T12:28:16;101248.00;;;30.00
23208;BMP180;11773;52.570;13.052;2022-08-01T12:30:49;101237.00;;;30.00
23208;BMP180;11773;52.570;13.052;2022-08-01T12:33:21;101254.00;;;30.10
23208;BMP180;11773;52.570;13.052;2022-08-01T12:35:51;101243.00;;;30.10
23208;BMP180;11773;52.570;13.052;2022-08-01T12:38:22;101242.00;;;30.10
23208;BMP180;11773;52.570;13.052;2022-08-01T12:40:53;101254.00;;;30.10
23208;BMP180;11773;52.570;13.052;2022-08-01T12:43:23;101255.00;;;30.10
23208;BMP180;11773;52.570;13.052;2022-08-01T12:45:58;101250.00;;;30.10
23208;BMP180;11773;52.570;13.052;2022-08-01T12:48:30;101243.00;;;30.10
23208;BMP180;11773;52.570;13.052;2022-08-01T12:51:02;101242.00;;;30.10
23208;BMP180;11773;52.570;13.052;2022-08-01T12:53:35;101245.00;;;30.10
23208;BMP180;11773;52.570;13.052;2022-08-01T12:56:06;101249.00;;;30.10
23208;BMP180;11773;52.570;13.052;2022-08-01T12:58:36;101243.00;;;30.10
23208;BMP180;11773;52.570;13.052;2022-08-01T13:01:09;101246.00;;;30.10
23208;BMP180;11773;52.570;13.052;2022-08-01T13:03:41;101259.00;;;30.10
23208;BMP180;11773;52.570;13.052;2022-08-01T13:06:14;101251.00;;;30.20
23208;BMP180;11773;52.570;13.052;2022-08-01T13:08:46;101250.00;;;30.20
23208;BMP180;11773;52.570;13.052;2022-08-01T13:11:16;101255.00;;;30.20
23208;BMP180;11773;52.570;13.052;2022-08-01T13:13:49;101260.00;;;30.20
23208;BMP180;11773;52.570;13.052;2022-08-01T13:16:25;101246.00;;;30.20
23208;BMP180;11773;52.570;13.052;2022-08-01T13:18:57;101255.00;;;30.20
23208;BMP180;11773;52.570;13.052;2022-08-01T13:21:29;101261.00;;;30.20
23208;BMP180;11773;52.570;13.052;2022-08-01T13:24:14;101255.00;;;30.20
23208;BMP180;11773;52.570;13.052;2022-08-01T13:26:50;101270.00;;;30.20
23208;BMP180;11773;52.570;13.052;2022-08-01T13:29:28;101268.00;;;30.20
23208;BMP180;11773;52.570;13.052;2022-08-01T13:31:53;101262.00;;;30.20
23208;BMP180;11773;52.570;13.052;2022-08-01T13:34:33;101266.00;;;30.30
23208;BMP180;11773;52.570;13.052;2022-08-01T13:37:03;101261.00;;;30.30
23208;BMP180;11773;52.570;13.052;2022-08-01T13:39:33;101258.00;;;30.30
23208;BMP180;11773;52.570;13.052;2022-08-01T13:42:12;101266.00;;;30.30
23208;BMP180;11773;52.570;13.052;2022-08-01T13:44:44;101267.00;;;30.40
23208;BMP180;11773;52.570;13.052;2022-08-01T13:47:14;101274.00;;;30.40
23208;BMP180;11773;52.570;13.052;2022-08-01T13:49:44;101264.00;;;30.40
23208;BMP180;11773;52.570;13.052;2022-08-01T13:52:14;101273.00;;;30.40
23208;BMP180;11773;52.570;13.052;2022-08-01T13:54:43;101267.00;;;30.40
23208;BMP180;11773;52.570;13.052;2022-08-01T13:57:13;101270.00;;;30.40
23208;BMP180;11773;52.570;13.052;2022-08-01T13:59:44;101267.00;;;30.50
23208;BMP180;11773;52.570;13.052;2022-08-01T14:02:13;101274.00;;;30.50
23208;BMP180;11773;52.570;13.052;2022-08-01T14:04:43;101271.00;;;30.50
23208;BMP180;11773;52.570;13.052;2022-08-01T14:07:12;101272.00;;;30.50
23208;BMP180;11773;52.570;13.052;2022-08-01T14:09:43;101270.00;;;30.50
23208;BMP180;11773;52.570;13.052;2022-08-01T14:12:14;101267.00;;;30.60
23208;BMP180;11773;52.570;13.052;2022-08-01T14:14:43;101268.00;;;30.60
23208;BMP180;11773;52.570;13.052;2022-08-01T14:17:13;101274.00;;;30.60
23208;BMP180;11773;52.570;13.052;2022-08-01T14:19:42;101291.00;;;30.60
23208;BMP180;11773;52.570;13.052;2022-08-01T14:22:13;101274.00;;;30.70
23208;BMP180;11773;52.570;13.052;2022-08-01T14:24:43;101279.00;;;30.70
23208;BMP180;11773;52.570;13.052;2022-08-01T14:27:13;101292.00;;;30.70
23208;BMP180;11773;52.570;13.052;2022-08-01T14:29:42;101282.00;;;30.70
23208;BMP180;11773;52.570;13.052;2022-08-01T14:32:15;101303.00;;;30.70
23208;BMP180;11773;52.570;13.052;2022-08-01T14:34:44;101297.00;;;30.80
23208;BMP180;11773;52.570;13.052;2022-08-01T14:37:14;101297.00;;;30.70